createdAt,value
2019-04-25T00:02:07.925Z,100338.77
2019-04-25T00:04:38.737Z,100339.91
2019-04-25T00:07:08.989Z,100346.85
2019-04-25T00:09:49.363Z,100341.28
2019-04-25T00:12:19.730Z,100339.37
2019-04-25T00:14:49.511Z,100345.80
2019-04-25T00:17:19.503Z,100351.02
2019-04-25T00:19:49.169Z,100346.70
2019-04-25T00:22:21.670Z,100346.39
2019-04-25T00:24:58.627Z,100346.27
2019-04-25T00:27:28.843Z,100350.55
2019-04-25T00:29:58.509Z,100347.02
2019-04-25T00:32:28.161Z,100352.49
2019-04-25T00:34:57.779Z,100355.51
2019-04-25T00:37:27.444Z,100356.28
2019-04-25T00:39:57.069Z,100351.49
2019-04-25T00:42:26.713Z,100361.66
2019-04-25T00:44:56.338Z,100357.72
2019-04-25T00:47:25.994Z,100363.97
2019-04-25T00:49:55.615Z,100367.41
2019-04-25T00:52:25.268Z,100368.20
2019-04-25T00:54:54.902Z,100370.50
2019-04-25T00:57:24.926Z,100368.92
2019-04-25T00:59:56.188Z,100367.72
2019-04-25T01:02:27.481Z,100367.29
2019-04-25T01:04:57.095Z,100365.23
2019-04-25T01:07:26.850Z,100370.83
2019-04-25T01:09:56.479Z,100369.19
2019-04-25T01:12:26.127Z,100372.08
2019-04-25T01:14:55.747Z,100372.77
2019-04-25T01:17:26.077Z,100373.66
2019-04-25T01:19:57.938Z,100376.77
2019-04-25T01:22:27.357Z,100376.66
2019-04-25T01:24:57.009Z,100373.22
2019-04-25T01:27:26.731Z,100375.27
2019-04-25T01:29:56.463Z,100377.91
2019-04-25T01:32:27.715Z,100382.59
2019-04-25T01:35:05.026Z,100377.11
2019-04-25T01:37:36.291Z,100376.27
2019-04-25T01:40:24.240Z,100373.89
2019-04-25T01:43:08.155Z,100369.11
2019-04-25T01:45:38.093Z,100372.36
2019-04-25T01:48:07.957Z,100367.10
2019-04-25T01:50:38.145Z,100369.99
2019-04-25T01:53:07.772Z,100363.85
2019-04-25T01:55:37.494Z,100368.79
2019-04-25T01:58:07.131Z,100368.72
2019-04-25T02:00:38.502Z,100370.77
2019-04-25T02:03:08.294Z,100367.88
2019-04-25T02:05:38.099Z,100371.71
2019-04-25T02:08:07.735Z,100376.75
2019-04-25T02:10:37.401Z,100363.41
2019-04-25T02:13:08.669Z,100364.59
2019-04-25T02:15:38.402Z,100360.78
2019-04-25T02:18:08.877Z,100360.41
2019-04-25T02:20:38.605Z,100355.55
2019-04-25T02:23:08.225Z,100356.87
2019-04-25T02:25:38.167Z,100352.08
2019-04-25T02:28:07.785Z,100348.25
2019-04-25T02:30:37.692Z,100341.38
2019-04-25T02:33:09.253Z,100341.99
2019-04-25T02:35:42.772Z,100351.20
2019-04-25T02:38:10.309Z,100343.56
2019-04-25T02:40:40.162Z,100344.52
2019-04-25T02:43:10.346Z,100343.95
2019-04-25T02:45:47.589Z,100352.91
2019-04-25T02:48:36.819Z,100351.45
2019-04-25T02:51:17.265Z,100354.55
2019-04-25T02:53:59.816Z,100360.17
2019-04-25T02:56:34.265Z,100371.76
2019-04-25T02:59:00.777Z,100373.30
2019-04-25T03:01:30.617Z,100381.33
2019-04-25T03:04:00.959Z,100392.43
2019-04-25T03:06:30.757Z,100396.84
2019-04-25T03:09:01.662Z,100415.91
2019-04-25T03:11:31.608Z,100422.28
2019-04-25T03:14:02.093Z,100428.95
2019-04-25T03:16:31.817Z,100417.78
2019-04-25T03:19:14.906Z,100401.53
2019-04-25T03:21:49.138Z,100399.85
2019-04-25T03:24:18.812Z,100392.95
2019-04-25T03:26:48.553Z,100390.42
2019-04-25T03:29:18.213Z,100391.88
2019-04-25T03:31:47.912Z,100397.13
2019-04-25T03:34:20.560Z,100407.66
2019-04-25T03:36:48.902Z,100406.11
2019-04-25T03:39:18.562Z,100415.55
2019-04-25T03:41:48.191Z,100410.16
2019-04-25T03:44:17.842Z,100415.16
2019-04-25T03:46:47.464Z,100413.36
2019-04-25T03:49:17.115Z,100406.93
2019-04-25T03:51:46.735Z,100402.15
2019-04-25T03:54:16.392Z,100400.94
2019-04-25T03:56:53.629Z,100398.45
2019-04-25T03:59:17.364Z,100407.64
2019-04-25T04:01:46.984Z,100407.88
2019-04-25T04:04:16.659Z,100408.58
2019-04-25T04:06:46.302Z,100418.24
2019-04-25T04:09:15.956Z,100420.77
2019-04-25T04:11:45.589Z,100418.14
2019-04-25T04:14:15.763Z,100414.07
2019-04-25T04:16:47.101Z,100427.20
2019-04-25T04:19:16.757Z,100436.52
2019-04-25T04:21:48.026Z,100448.43
2019-04-25T04:24:19.328Z,100440.55
2019-04-25T04:27:01.597Z,100431.97
2019-04-25T04:29:25.084Z,100441.16
2019-04-25T04:31:54.407Z,100439.02
2019-04-25T04:34:24.128Z,100441.77
2019-04-25T04:36:53.802Z,100433.52
2019-04-25T04:39:23.601Z,100425.55
2019-04-25T04:41:53.551Z,100430.89
2019-04-25T04:44:24.607Z,100438.06
2019-04-25T04:46:54.254Z,100439.42
2019-04-25T04:49:23.913Z,100440.13
2019-04-25T04:51:54.134Z,100439.16
2019-04-25T04:54:23.910Z,100441.41
2019-04-25T04:56:53.920Z,100432.53
2019-04-25T04:59:24.842Z,100432.86
2019-04-25T05:01:56.150Z,100437.13
2019-04-25T05:04:27.433Z,100437.34
2019-04-25T05:07:04.666Z,100438.02
2019-04-25T05:09:35.388Z,100437.85
2019-04-25T05:12:06.776Z,100438.27
2019-04-25T05:14:36.515Z,100437.53
2019-04-25T05:17:10.247Z,100435.92
2019-04-25T05:19:40.136Z,100436.98
2019-04-25T05:22:10.243Z,100439.91
2019-04-25T05:24:40.070Z,100441.33
2019-04-25T05:27:10.197Z,100442.86
2019-04-25T05:29:39.826Z,100444.36
2019-04-25T05:32:09.515Z,100444.31
2019-04-25T05:34:39.142Z,100448.11
2019-04-25T05:37:09.565Z,100447.22
2019-04-25T05:39:39.194Z,100454.34
2019-04-25T05:42:10.962Z,100461.81
2019-04-25T05:44:41.800Z,100475.11
2019-04-25T05:47:11.573Z,100482.34
2019-04-25T05:49:41.837Z,100484.91
2019-04-25T05:52:13.885Z,100488.36
2019-04-25T05:54:44.348Z,100493.19
2019-04-25T05:57:14.032Z,100496.97
2019-04-25T05:59:43.733Z,100502.78
2019-04-25T06:02:13.951Z,100507.25
2019-04-25T06:04:43.766Z,100506.92
2019-04-25T06:07:14.465Z,100515.61
2019-04-25T06:09:46.179Z,100506.72
2019-04-25T06:12:20.419Z,100504.38
2019-04-25T06:14:50.080Z,100504.16
2019-04-25T06:17:30.133Z,100504.32
2019-04-25T06:20:04.353Z,100503.06
2019-04-25T06:22:49.499Z,100506.75
2019-04-25T06:25:21.836Z,100505.22
2019-04-25T06:27:57.224Z,100499.61
2019-04-25T06:30:27.236Z,100500.42
2019-04-25T06:32:56.865Z,100496.89
2019-04-25T06:35:27.554Z,100502.97
2019-04-25T06:37:57.247Z,100504.12
2019-04-25T06:40:29.735Z,100509.67
2019-04-25T06:42:58.579Z,100521.11
2019-04-25T06:45:46.446Z,100515.53
2019-04-25T06:48:17.705Z,100515.69
2019-04-25T06:50:47.365Z,100521.24
2019-04-25T06:53:16.985Z,100518.92
2019-04-25T06:55:46.651Z,100514.44
2019-04-25T06:58:16.275Z,100519.73
2019-04-25T07:00:58.093Z,100524.60
2019-04-25T07:03:17.461Z,100529.47
2019-04-25T07:05:47.118Z,100528.50
2019-04-25T07:08:16.740Z,100533.80
2019-04-25T07:10:46.397Z,100536.83
2019-04-25T07:13:16.023Z,100538.23
2019-04-25T07:15:45.879Z,100538.36
2019-04-25T07:18:15.563Z,100538.00
2019-04-25T07:20:45.448Z,100550.06
2019-04-25T07:23:15.025Z,100553.06
2019-04-25T07:25:46.321Z,100547.70
2019-04-25T07:28:31.126Z,100546.04
2019-04-25T07:31:03.598Z,100547.28
2019-04-25T07:33:35.864Z,100553.01
2019-04-25T07:36:05.598Z,100554.75
2019-04-25T07:38:35.219Z,100556.99
2019-04-25T07:41:05.209Z,100557.94
2019-04-25T07:43:35.443Z,100556.25
2019-04-25T07:46:06.237Z,100550.09
2019-04-25T07:48:37.139Z,100547.72
2019-04-25T07:51:07.276Z,100557.23
2019-04-25T07:53:37.571Z,100557.95
2019-04-25T07:56:07.238Z,100553.09
2019-04-25T07:58:49.367Z,100556.16
2019-04-25T08:01:14.084Z,100562.16
2019-04-25T08:03:53.870Z,100560.91
2019-04-25T08:06:25.809Z,100559.27
2019-04-25T08:08:55.507Z,100563.19
2019-04-25T08:11:25.125Z,100565.06
2019-04-25T08:14:11.094Z,100565.27
2019-04-25T08:16:44.201Z,100563.77
2019-04-25T08:19:15.350Z,100570.17
2019-04-25T08:21:45.352Z,100573.64
2019-04-25T08:24:15.558Z,100569.53
2019-04-25T08:26:45.184Z,100570.09
2019-04-25T08:29:16.773Z,100569.70
2019-04-25T08:31:46.570Z,100570.04
2019-04-25T08:34:16.219Z,100577.03
2019-04-25T08:36:45.850Z,100585.34
2019-04-25T08:39:15.515Z,100582.67
2019-04-25T08:41:45.722Z,100577.70
2019-04-25T08:44:15.570Z,100575.05
2019-04-25T08:46:48.559Z,100576.89
2019-04-25T08:49:26.643Z,100570.06
2019-04-25T08:51:57.543Z,100570.69
2019-04-25T08:54:41.104Z,100569.39
2019-04-25T08:57:10.469Z,100570.17
2019-04-25T08:59:56.313Z,100572.91
2019-04-25T09:02:36.112Z,100573.34
2019-04-25T09:05:18.891Z,100582.14
2019-04-25T09:07:48.518Z,100589.27
2019-04-25T09:10:18.238Z,100586.42
2019-04-25T09:12:47.875Z,100587.33
2019-04-25T09:15:17.708Z,100584.52
2019-04-25T09:17:47.333Z,100586.71
2019-04-25T09:20:17.631Z,100586.69
2019-04-25T09:22:47.271Z,100583.29
2019-04-25T09:25:17.341Z,100584.05
2019-04-25T09:27:47.093Z,100593.63
2019-04-25T09:30:17.008Z,100582.68
2019-04-25T09:32:47.847Z,100577.60
2019-04-25T09:35:20.105Z,100568.86
2019-04-25T09:37:49.104Z,100572.17
2019-04-25T09:40:18.863Z,100573.00
2019-04-25T09:42:48.513Z,100574.87
2019-04-25T09:45:30.619Z,100574.81
2019-04-25T09:48:17.064Z,100580.05
2019-04-25T09:50:48.351Z,100577.26
2019-04-25T09:53:23.167Z,100575.43
2019-04-25T09:56:00.603Z,100577.82
2019-04-25T09:58:48.555Z,100580.44
2019-04-25T10:01:19.190Z,100577.71
2019-04-25T10:03:48.850Z,100577.41
2019-04-25T10:06:19.136Z,100577.19
2019-04-25T10:08:48.858Z,100533.92
2019-04-25T10:11:18.620Z,100533.92
2019-04-25T10:13:54.393Z,100577.44
2019-04-25T10:16:24.108Z,100581.52
2019-04-25T10:18:53.763Z,100579.53
2019-04-25T10:21:24.018Z,100577.39
2019-04-25T10:23:53.693Z,100570.24
2019-04-25T10:26:23.637Z,100576.78
2019-04-25T10:28:56.010Z,100573.22
2019-04-25T10:31:25.721Z,100567.45
2019-04-25T10:33:55.439Z,100574.29
2019-04-25T10:36:25.139Z,100573.59
2019-04-25T10:39:07.519Z,100566.09
2019-04-25T10:41:26.118Z,100567.25
2019-04-25T10:43:56.195Z,100574.17
2019-04-25T10:46:25.872Z,100569.05
2019-04-25T10:48:56.148Z,100575.89
2019-04-25T10:51:26.025Z,100562.83
2019-04-25T10:53:55.857Z,100562.83
2019-04-25T10:56:25.468Z,100561.93
2019-04-25T10:58:55.150Z,100564.51
2019-04-25T11:01:24.767Z,100561.59
2019-04-25T11:03:56.359Z,100565.39
2019-04-25T11:06:27.655Z,100560.31
2019-04-25T11:08:57.314Z,100559.86
2019-04-25T11:11:27.098Z,100560.41
2019-04-25T11:13:58.158Z,100558.54
2019-04-25T11:16:27.882Z,100559.21
2019-04-25T11:18:57.512Z,100566.58
2019-04-25T11:21:27.168Z,100565.39
2019-04-25T11:23:56.794Z,100568.77
2019-04-25T11:26:26.890Z,100561.74
2019-04-25T11:28:56.614Z,100557.22
2019-04-25T11:31:27.900Z,100558.72
2019-04-25T11:33:57.529Z,100555.95
2019-04-25T11:36:27.184Z,100555.31
2019-04-25T11:38:58.445Z,100554.84
2019-04-25T11:41:28.106Z,100554.53
2019-04-25T11:44:00.367Z,100549.03
2019-04-25T11:46:29.099Z,100545.16
2019-04-25T11:48:58.795Z,100542.52
2019-04-25T11:51:28.454Z,100546.70
2019-04-25T11:53:58.083Z,100547.41
2019-04-25T11:56:28.068Z,100546.30
2019-04-25T11:58:57.695Z,100555.05
2019-04-25T12:01:27.519Z,100557.09
2019-04-25T12:03:57.215Z,100554.95
2019-04-25T12:06:26.863Z,100557.62
2019-04-25T12:08:56.524Z,100553.56
2019-04-25T12:11:26.191Z,100553.15
2019-04-25T12:13:55.862Z,100555.41
2019-04-25T12:16:25.551Z,100560.23
2019-04-25T12:18:56.447Z,100561.39
2019-04-25T12:21:26.122Z,100556.80
2019-04-25T12:23:55.780Z,100557.92
2019-04-25T12:26:26.264Z,100563.78
2019-04-25T12:28:56.569Z,100567.30
2019-04-25T12:31:26.546Z,100566.91
2019-04-25T12:33:57.445Z,100562.27
2019-04-25T12:36:27.365Z,100566.09
2019-04-25T12:38:57.030Z,100555.53
2019-04-25T12:41:26.650Z,100556.45
2019-04-25T12:43:58.008Z,100563.05
2019-04-25T12:46:29.279Z,100560.73
2019-04-25T12:48:58.938Z,100561.88
2019-04-25T12:51:28.558Z,100564.58
2019-04-25T12:53:58.221Z,100556.77
2019-04-25T12:56:27.846Z,100553.96
2019-04-25T12:58:57.496Z,100552.49
2019-04-25T13:01:27.122Z,100545.69
2019-04-25T13:03:56.772Z,100541.94
2019-04-25T13:06:26.398Z,100544.00
2019-04-25T13:08:56.054Z,100544.66
2019-04-25T13:11:25.682Z,100553.31
2019-04-25T13:13:55.341Z,100551.78
2019-04-25T13:16:24.966Z,100550.13
2019-04-25T13:18:55.581Z,100554.30
2019-04-25T13:21:25.230Z,100552.14
2019-04-25T13:23:55.719Z,100544.98
2019-04-25T13:26:27.873Z,100538.08
2019-04-25T13:29:15.353Z,100538.36
2019-04-25T13:31:58.945Z,100537.55
2019-04-25T13:34:36.407Z,100542.45
2019-04-25T13:37:06.251Z,100543.67
2019-04-25T13:39:35.989Z,100541.61
2019-04-25T13:42:06.830Z,100544.92
2019-04-25T13:44:36.741Z,100536.15
2019-04-25T13:47:07.005Z,100532.95
2019-04-25T13:49:37.208Z,100529.73
2019-04-25T13:52:08.474Z,100526.53
2019-04-25T13:54:38.145Z,100523.16
2019-04-25T13:57:08.039Z,100521.24
2019-04-25T13:59:37.703Z,100516.86
2019-04-25T14:02:07.730Z,100524.13
2019-04-25T14:04:37.400Z,100515.61
2019-04-25T14:07:07.057Z,100513.28
2019-04-25T14:09:36.689Z,100515.45
2019-04-25T14:12:06.603Z,100508.17
2019-04-25T14:14:36.930Z,100510.34
2019-04-25T14:17:24.782Z,100504.63
2019-04-25T14:20:04.905Z,100503.45
2019-04-25T14:22:34.625Z,100504.31
2019-04-25T14:25:05.898Z,100507.98
2019-04-25T14:27:35.627Z,100509.08
2019-04-25T14:30:09.238Z,100507.03
2019-04-25T14:32:38.996Z,100500.27
2019-04-25T14:35:08.872Z,100510.34
2019-04-25T14:37:39.741Z,100504.20
2019-04-25T14:40:10.149Z,100507.93
2019-04-25T14:42:39.804Z,100507.91
2019-04-25T14:45:09.929Z,100503.06
2019-04-25T14:47:39.933Z,100501.72
2019-04-25T14:50:09.791Z,100502.75
2019-04-25T14:52:40.761Z,100504.19
2019-04-25T14:55:15.134Z,100496.20
2019-04-25T14:57:44.785Z,100498.60
2019-04-25T15:00:32.551Z,100496.34
2019-04-25T15:03:02.238Z,100497.23
2019-04-25T15:05:31.859Z,100496.28
2019-04-25T15:08:01.529Z,100497.51
2019-04-25T15:10:31.156Z,100499.02
2019-04-25T15:13:00.817Z,100496.62
2019-04-25T15:15:30.434Z,100493.39
2019-04-25T15:18:00.089Z,100490.25
2019-04-25T15:20:30.183Z,100485.86
2019-04-25T15:22:59.839Z,100494.69
2019-04-25T15:25:29.703Z,100487.58
2019-04-25T15:27:59.399Z,100483.92
2019-04-25T15:30:30.673Z,100484.09
2019-04-25T15:33:00.321Z,100481.80
2019-04-25T15:35:34.583Z,100481.97
2019-04-25T15:38:06.119Z,100487.09
2019-04-25T15:40:44.111Z,100485.38
2019-04-25T15:43:15.666Z,100485.47
2019-04-25T15:45:46.930Z,100483.98
2019-04-25T15:48:16.587Z,100492.91
2019-04-25T15:50:46.215Z,100492.25
2019-04-25T15:53:15.861Z,100488.91
2019-04-25T15:55:45.670Z,100489.30
2019-04-25T15:58:15.300Z,100486.73
2019-04-25T16:00:45.025Z,100488.75
2019-04-25T16:03:14.956Z,100489.30
2019-04-25T16:05:44.613Z,100486.01
2019-04-25T16:08:14.332Z,100484.55
2019-04-25T16:10:44.161Z,100489.78
2019-04-25T16:13:13.811Z,100480.52
2019-04-25T16:15:43.793Z,100487.26
2019-04-25T16:18:14.112Z,100478.81
2019-04-25T16:20:44.267Z,100480.98
2019-04-25T16:23:14.158Z,100484.11
2019-04-25T16:25:44.166Z,100485.81
2019-04-25T16:28:14.452Z,100481.41
2019-04-25T16:30:44.442Z,100481.34
2019-04-25T16:33:14.048Z,100486.02
2019-04-25T16:35:43.708Z,100489.52
2019-04-25T16:38:14.410Z,100483.94
2019-04-25T16:40:44.186Z,100490.52
2019-04-25T16:43:15.659Z,100491.27
2019-04-25T16:45:45.482Z,100488.47
2019-04-25T16:48:15.875Z,100496.16
2019-04-25T16:50:45.629Z,100493.59
2019-04-25T16:53:16.697Z,100493.88
2019-04-25T16:55:46.935Z,100495.95
2019-04-25T16:58:16.848Z,100494.34
2019-04-25T17:00:51.449Z,100493.92
2019-04-25T17:03:22.143Z,100492.72
2019-04-25T17:05:51.912Z,100495.86
2019-04-25T17:08:21.603Z,100500.89
2019-04-25T17:10:51.342Z,100499.21
2019-04-25T17:13:21.054Z,100500.23
2019-04-25T17:15:55.036Z,100507.47
2019-04-25T17:18:32.000Z,100504.77
2019-04-25T17:21:06.272Z,100510.08
2019-04-25T17:23:37.008Z,100510.58
2019-04-25T17:26:07.089Z,100513.41
2019-04-25T17:28:39.158Z,100512.97
2019-04-25T17:31:15.953Z,100522.17
2019-04-25T17:34:03.253Z,100520.67
2019-04-25T17:36:35.752Z,100522.75
2019-04-25T17:39:08.493Z,100549.69
2019-04-25T17:41:38.429Z,100500.81
2019-04-25T17:44:08.073Z,100514.91
2019-04-25T17:46:37.741Z,100514.52
2019-04-25T17:49:07.370Z,100522.41
2019-04-25T17:51:37.039Z,100519.20
2019-04-25T17:54:06.667Z,100519.20
2019-04-25T17:56:36.433Z,100524.87
2019-04-25T17:59:06.055Z,100531.45
2019-04-25T18:01:35.995Z,100528.89
2019-04-25T18:04:05.905Z,100506.43
2019-04-25T18:06:35.691Z,100539.17
2019-04-25T18:09:07.302Z,100539.17
2019-04-25T18:11:38.025Z,100540.00
2019-04-25T18:14:07.760Z,100545.77
2019-04-25T18:16:40.329Z,100545.14
2019-04-25T18:19:17.955Z,100550.98
2019-04-25T18:21:47.577Z,100545.36
2019-04-25T18:24:18.882Z,100552.40
2019-04-25T18:26:50.203Z,100553.16
2019-04-25T18:29:21.518Z,100552.05
2019-04-25T18:31:51.154Z,100554.45
2019-04-25T18:34:22.468Z,100558.30
2019-04-25T18:36:56.757Z,100560.84
2019-04-25T18:39:44.320Z,100561.69
2019-04-25T18:42:18.743Z,100562.44
2019-04-25T18:44:49.945Z,100565.56
2019-04-25T18:47:19.584Z,100568.39
2019-04-25T18:49:49.247Z,100561.25
2019-04-25T18:52:32.280Z,100559.94
2019-04-25T18:55:03.599Z,100562.24
2019-04-25T18:57:45.191Z,100564.72
2019-04-25T19:00:29.084Z,100567.05
2019-04-25T19:03:22.666Z,100567.50
2019-04-25T19:05:52.629Z,100568.42
2019-04-25T19:08:22.260Z,100566.41
2019-04-25T19:10:51.971Z,100565.23
2019-04-25T19:13:21.563Z,100566.86
2019-04-25T19:15:51.548Z,100565.19
2019-04-25T19:18:21.155Z,100564.17
2019-04-25T19:20:50.817Z,100561.98
2019-04-25T19:23:20.458Z,100554.17
2019-04-25T19:25:50.175Z,100559.06
2019-04-25T19:28:19.797Z,100562.28
2019-04-25T19:30:49.672Z,100560.56
2019-04-25T19:33:19.303Z,100563.21
2019-04-25T19:35:51.933Z,100561.22
2019-04-25T19:38:21.649Z,100561.14
2019-04-25T19:40:55.868Z,100569.18
2019-04-25T19:43:27.779Z,100566.27
2019-04-25T19:45:57.414Z,100566.21
2019-04-25T19:48:28.530Z,100559.36
2019-04-25T19:50:58.169Z,100557.31
2019-04-25T19:53:27.848Z,100561.11
2019-04-25T19:55:57.486Z,100557.44
2019-04-25T19:58:27.169Z,100553.81
2019-04-25T20:00:56.808Z,100555.81
2019-04-25T20:03:28.109Z,100547.84
2019-04-25T20:05:59.372Z,100552.91
2019-04-25T20:08:39.472Z,100551.05
2019-04-25T20:11:13.826Z,100550.28
2019-04-25T20:13:44.385Z,100549.94
2019-04-25T20:16:14.931Z,100548.19
2019-04-25T20:18:45.612Z,100546.19
2019-04-25T20:21:15.307Z,100548.84
2019-04-25T20:23:46.360Z,100552.77
2019-04-25T20:26:16.383Z,100554.33
2019-04-25T20:28:46.222Z,100553.28
2019-04-25T20:31:16.104Z,100549.13
2019-04-25T20:33:46.816Z,100557.88
2019-04-25T20:36:17.923Z,100554.36
2019-04-25T20:38:47.828Z,100547.12
2019-04-25T20:41:17.558Z,100547.27
2019-04-25T20:43:48.805Z,100545.95
2019-04-25T20:46:18.541Z,100548.59
2019-04-25T20:48:50.175Z,100542.27
2019-04-25T20:51:19.801Z,100541.34
2019-04-25T20:53:49.434Z,100540.98
2019-04-25T20:56:19.100Z,100542.12
2019-04-25T20:58:49.113Z,100540.25
2019-04-25T21:01:18.767Z,100542.64
2019-04-25T21:03:48.616Z,100540.73
2019-04-25T21:06:19.981Z,100540.12
2019-04-25T21:08:50.110Z,100540.73
2019-04-25T21:11:20.067Z,100539.38
2019-04-25T21:14:03.149Z,100537.21
2019-04-25T21:16:34.532Z,100537.02
2019-04-25T21:19:11.312Z,100542.23
2019-04-25T21:21:41.047Z,100539.88
2019-04-25T21:24:10.678Z,100542.70
2019-04-25T21:26:40.344Z,100544.30
2019-04-25T21:29:10.052Z,100540.50
2019-04-25T21:31:39.784Z,100536.30
2019-04-25T21:34:09.419Z,100541.55
2019-04-25T21:36:39.350Z,100538.27
2019-04-25T21:39:10.620Z,100536.19
2019-04-25T21:41:45.540Z,100532.91
2019-04-25T21:44:17.673Z,100532.98
2019-04-25T21:46:46.801Z,100535.22
2019-04-25T21:49:16.604Z,100533.55
2019-04-25T21:51:46.301Z,100531.74
2019-04-25T21:54:16.123Z,100532.22
2019-04-25T21:56:46.281Z,100528.70
2019-04-25T21:59:16.116Z,100531.63
2019-04-25T22:01:46.453Z,100521.47
2019-04-25T22:04:16.185Z,100530.19
2019-04-25T22:06:46.266Z,100533.72
2019-04-25T22:09:22.886Z,100531.84
2019-04-25T22:11:53.063Z,100528.02
2019-04-25T22:14:23.014Z,100526.42
2019-04-25T22:16:52.828Z,100530.94
2019-04-25T22:19:22.762Z,100524.34
2019-04-25T22:21:52.680Z,100520.38
2019-04-25T22:24:22.511Z,100520.78
2019-04-25T22:26:54.089Z,100515.37
2019-04-25T22:29:23.945Z,100511.17
2019-04-25T22:32:01.532Z,100508.81
2019-04-25T22:34:51.321Z,100511.73
2019-04-25T22:37:10.373Z,100508.14
2019-04-25T22:39:40.313Z,100503.13
2019-04-25T22:42:09.946Z,100505.77
2019-04-25T22:44:40.349Z,100500.77
2019-04-25T22:47:10.021Z,100506.95
2019-04-25T22:49:39.665Z,100503.33
2019-04-25T22:52:09.576Z,100513.55
2019-04-25T22:54:39.413Z,100505.56
2019-04-25T22:57:09.049Z,100507.56
2019-04-25T22:59:38.895Z,100507.08
2019-04-25T23:02:22.309Z,100504.12
2019-04-25T23:05:04.731Z,100496.95
2019-04-25T23:07:25.315Z,100499.44
2019-04-25T23:09:55.360Z,100502.36
2019-04-25T23:12:25.278Z,100499.52
2019-04-25T23:14:55.050Z,100498.34
2019-04-25T23:17:24.685Z,100497.98
2019-04-25T23:19:54.631Z,100505.27
2019-04-25T23:22:24.361Z,100495.91
2019-04-25T23:25:01.754Z,100501.05
2019-04-25T23:27:39.165Z,100494.37
2019-04-25T23:30:10.694Z,100491.31
2019-04-25T23:32:41.020Z,100494.56
2019-04-25T23:35:24.335Z,100493.11
2019-04-25T23:37:42.076Z,100493.39
2019-04-25T23:40:13.648Z,100491.23
2019-04-25T23:42:43.326Z,100488.86
2019-04-25T23:45:14.606Z,100484.55
2019-04-25T23:47:44.323Z,100478.17
2019-04-25T23:50:14.842Z,100475.08
2019-04-25T23:52:44.504Z,100479.31
2019-04-25T23:55:15.196Z,100484.37
2019-04-25T23:57:44.851Z,100477.94
